Time;durP1;ratioP1;P1;durP2;ratioP2;P2;SDS_P1;SDS_P2;PMS_P1;PMS_P2;Temp;Humidity;BMP_temperature;BMP_pressure;BME280_temperature;BME280_humidity;BME280_pressure;Samples;Min_cycle;Max_cycle;Signal;HPM_P1;HPM_P2
2022/03/04 00:01:53;;;;;;;27.55;15.30;;;2.90;81.10;;;;;;4932166;29;20079;-67
2022/03/04 00:04:19;;;;;;;27.67;16.40;;;2.90;81.10;;;;;;4932595;29;20094;-66
2022/03/04 00:06:45;;;;;;;27.95;15.93;;;2.90;81.30;;;;;;4915663;29;20048;-65
2022/03/04 00:09:10;;;;;;;29.92;16.33;;;2.90;81.30;;;;;;4932861;29;20047;-66
2022/03/04 00:11:39;;;;;;;25.17;15.55;;;2.80;81.40;;;;;;4933220;29;20200;-66
2022/03/04 00:14:05;;;;;;;31.13;17.88;;;2.80;81.40;;;;;;4931138;29;20055;-66
2022/03/04 00:16:31;;;;;;;25.80;16.38;;;2.80;81.50;;;;;;4914212;29;20469;-66
2022/03/04 00:19:07;;;;;;;27.88;15.93;;;2.80;81.30;;;;;;4922498;29;20618;-66
2022/03/04 00:21:44;;;;;;;26.00;15.77;;;2.80;81.30;;;;;;4931640;29;20083;-66
2022/03/04 00:24:11;;;;;;;25.48;15.38;;;2.90;81.30;;;;;;4931428;29;20059;-66
2022/03/04 00:26:38;;;;;;;29.98;15.93;;;2.80;81.30;;;;;;4931932;29;20052;-65
2022/03/04 00:29:05;;;;;;;26.75;16.10;;;2.80;81.20;;;;;;4932424;29;20047;-66
2022/03/04 00:31:32;;;;;;;25.98;15.32;;;2.80;81.00;;;;;;4932546;29;20449;-66
2022/03/04 00:33:58;;;;;;;28.30;14.82;;;2.80;80.90;;;;;;4931248;29;20050;-66
2022/03/04 00:36:24;;;;;;;26.45;15.90;;;2.80;80.80;;;;;;4914836;29;20532;-66
2022/03/04 00:38:51;;;;;;;25.60;15.20;;;2.80;80.80;;;;;;4930946;29;20079;-66
2022/03/04 00:41:18;;;;;;;25.17;15.60;;;2.70;80.70;;;;;;4922411;29;20138;-66
2022/03/04 00:43:44;;;;;;;22.65;13.70;;;2.70;80.70;;;;;;4922778;29;20051;-67
2022/03/04 00:46:11;;;;;;;22.55;13.35;;;2.70;80.70;;;;;;4931375;29;20071;-66
2022/03/04 00:48:37;;;;;;;22.23;13.75;;;2.70;80.70;;;;;;4931400;29;20052;-66
2022/03/04 00:51:03;;;;;;;23.27;14.75;;;2.70;80.60;;;;;;4931584;29;20460;-67
2022/03/04 00:53:30;;;;;;;24.55;14.48;;;2.70;80.60;;;;;;4930446;29;20055;-67
2022/03/04 00:55:59;;;;;;;23.38;13.93;;;2.70;80.60;;;;;;4931533;29;20043;-67
2022/03/04 00:58:25;;;;;;;24.38;13.57;;;2.70;80.60;;;;;;4930588;29;20098;-66
2022/03/04 01:00:51;;;;;;;26.92;14.50;;;2.60;80.50;;;;;;4930582;29;20484;-67
2022/03/04 01:03:17;;;;;;;21.77;13.70;;;2.60;80.50;;;;;;4930989;29;20044;-66
2022/03/04 01:05:42;;;;;;;23.33;14.00;;;2.60;80.60;;;;;;4931073;29;20046;-67
2022/03/04 01:08:08;;;;;;;26.20;13.82;;;2.50;80.60;;;;;;4931105;29;20050;-66
2022/03/04 01:10:35;;;;;;;22.65;12.93;;;2.50;80.60;;;;;;4930573;29;20077;-66
2022/03/04 01:13:00;;;;;;;21.40;12.95;;;2.40;80.70;;;;;;4930909;29;20052;-66
2022/03/04 01:15:26;;;;;;;21.33;12.82;;;2.40;80.70;;;;;;4931158;29;20060;-67
2022/03/04 01:17:52;;;;;;;22.20;12.38;;;2.40;80.60;;;;;;4931261;29;20048;-67
2022/03/04 01:20:17;;;;;;;19.50;11.88;;;2.40;80.60;;;;;;4930895;29;20044;-67
2022/03/04 01:22:43;;;;;;;22.95;12.63;;;2.40;80.60;;;;;;4930595;29;20079;-66
2022/03/04 01:25:09;;;;;;;23.38;12.07;;;2.40;80.70;;;;;;4930481;29;20137;-66
2022/03/04 01:27:35;;;;;;;21.85;11.52;;;2.40;80.70;;;;;;4925121;29;20079;-67
2022/03/04 01:30:02;;;;;;;22.70;13.07;;;2.40;80.80;;;;;;4933618;29;20139;-67
2022/03/04 01:32:27;;;;;;;24.02;13.60;;;2.40;80.70;;;;;;4930902;29;20051;-67
2022/03/04 01:34:53;;;;;;;22.63;11.98;;;2.40;80.70;;;;;;4930430;29;20508;-67
2022/03/04 01:37:18;;;;;;;21.75;12.00;;;2.40;80.70;;;;;;4930882;29;20135;-65
2022/03/04 01:39:44;;;;;;;20.10;11.68;;;2.40;80.70;;;;;;4913162;29;20048;-66
2022/03/04 01:42:10;;;;;;;19.33;11.60;;;2.40;80.60;;;;;;4931764;29;20103;-67
2022/03/04 01:44:36;;;;;;;18.58;11.02;;;2.40;80.60;;;;;;4933690;29;20126;-66
2022/03/04 01:47:01;;;;;;;16.48;11.13;;;2.40;80.60;;;;;;4932910;29;20039;-67
2022/03/04 01:49:27;;;;;;;16.10;10.30;;;2.40;80.80;;;;;;4925013;29;20055;-67
2022/03/04 01:51:53;;;;;;;19.75;11.00;;;2.40;80.70;;;;;;4933544;29;20090;-66
2022/03/04 01:54:19;;;;;;;15.90;9.85;;;2.30;80.60;;;;;;4917753;29;20083;-65
2022/03/04 01:56:44;;;;;;;16.70;10.15;;;2.30;80.60;;;;;;4914914;29;20478;-67
2022/03/04 01:59:10;;;;;;;21.85;10.45;;;2.30;80.60;;;;;;4922345;29;20042;-66
2022/03/04 02:01:36;;;;;;;15.93;10.57;;;2.20;80.60;;;;;;4933655;29;20040;-67
2022/03/04 02:04:02;;;;;;;17.55;10.52;;;2.20;80.80;;;;;;4933835;29;20417;-66
2022/03/04 02:06:28;;;;;;;20.40;9.57;;;2.20;80.70;;;;;;4934136;29;20070;-67
2022/03/04 02:08:54;;;;;;;18.73;10.18;;;2.20;80.80;;;;;;4933631;29;20043;-67
2022/03/04 02:11:19;;;;;;;20.67;11.27;;;2.20;80.80;;;;;;4916941;29;20051;-67
2022/03/04 02:13:45;;;;;;;16.55;10.35;;;2.10;80.80;;;;;;4933398;29;20087;-66
2022/03/04 02:16:21;;;;;;;20.05;10.10;;;2.10;80.80;;;;;;4933804;29;20048;-65
2022/03/04 02:18:47;;;;;;;21.52;11.02;;;2.10;80.80;;;;;;4933087;29;20062;-67
2022/03/04 02:21:13;;;;;;;19.70;10.65;;;2.20;80.90;;;;;;4933171;29;20070;-66
2022/03/04 02:23:39;;;;;;;19.33;9.88;;;2.20;80.70;;;;;;4933644;29;20047;-67
2022/03/04 02:26:05;;;;;;;16.30;10.45;;;2.10;80.80;;;;;;4933567;29;20273;-65
2022/03/04 02:28:31;;;;;;;17.92;10.45;;;2.10;80.60;;;;;;4916832;29;20052;-66
2022/03/04 02:30:56;;;;;;;19.52;10.45;;;2.10;80.60;;;;;;4933026;29;20055;-67
2022/03/04 02:33:22;;;;;;;17.13;9.60;;;2.10;80.60;;;;;;4933412;29;20404;-66
2022/03/04 02:35:48;;;;;;;18.15;9.50;;;2.00;80.80;;;;;;4916175;29;20190;-65
2022/03/04 02:38:14;;;;;;;18.85;11.50;;;1.90;80.90;;;;;;4931332;29;20051;-66
2022/03/04 02:40:40;;;;;;;19.65;10.57;;;1.90;80.90;;;;;;4933076;29;20043;-67
2022/03/04 02:43:06;;;;;;;18.20;10.18;;;1.90;81.00;;;;;;4913493;29;20052;-66
2022/03/04 02:45:32;;;;;;;17.60;9.82;;;1.90;81.00;;;;;;4932520;29;20480;-66
2022/03/04 02:47:58;;;;;;;23.98;10.23;;;1.90;81.00;;;;;;4932238;29;20492;-67
2022/03/04 02:50:24;;;;;;;16.88;9.95;;;1.80;81.00;;;;;;4932163;29;20040;-67
2022/03/04 02:52:50;;;;;;;14.85;9.05;;;1.90;81.00;;;;;;4931507;29;20070;-64
2022/03/04 02:55:15;;;;;;;18.35;10.23;;;1.80;81.00;;;;;;4931626;29;20523;-67
2022/03/04 02:57:44;;;;;;;19.88;9.52;;;1.80;81.10;;;;;;4932107;29;20106;-67
2022/03/04 03:00:11;;;;;;;15.70;10.27;;;1.80;81.20;;;;;;4913279;29;20585;-66
2022/03/04 03:02:37;;;;;;;17.13;9.65;;;1.80;81.20;;;;;;4923847;29;20063;-66
2022/03/04 03:05:02;;;;;;;17.30;10.35;;;1.80;81.30;;;;;;4914170;29;20044;-65
2022/03/04 03:07:29;;;;;;;18.23;10.13;;;1.80;81.30;;;;;;4928844;29;20051;-67
2022/03/04 03:09:55;;;;;;;17.13;9.65;;;1.70;81.40;;;;;;4932751;29;20519;-65
2022/03/04 03:12:21;;;;;;;16.58;10.75;;;1.70;81.50;;;;;;4932364;29;20062;-65
2022/03/04 03:14:47;;;;;;;18.73;10.75;;;1.70;81.60;;;;;;4932494;29;20043;-66
2022/03/04 03:17:13;;;;;;;15.30;10.45;;;1.70;81.70;;;;;;4932598;29;20130;-67
2022/03/04 03:19:38;;;;;;;17.92;9.95;;;1.70;81.70;;;;;;4920069;29;20083;-67
2022/03/04 03:22:04;;;;;;;19.00;10.50;;;1.70;81.70;;;;;;4932340;29;20048;-67
2022/03/04 03:24:30;;;;;;;19.85;11.27;;;1.60;81.90;;;;;;4910329;29;20048;-67
2022/03/04 03:26:56;;;;;;;17.88;10.90;;;1.70;82.20;;;;;;4913263;29;20052;-67
2022/03/04 03:29:21;;;;;;;18.55;11.45;;;1.60;82.30;;;;;;4921323;29;20413;-67
2022/03/04 03:31:47;;;;;;;17.70;11.60;;;1.60;82.20;;;;;;4929181;29;20480;-67
2022/03/04 03:34:14;;;;;;;20.25;11.35;;;1.60;82.10;;;;;;4913622;29;20135;-67
2022/03/04 03:36:39;;;;;;;17.77;10.63;;;1.60;82.30;;;;;;4913676;29;20047;-67
2022/03/04 03:39:05;;;;;;;19.02;10.13;;;1.60;82.30;;;;;;4913620;29;20548;-67
2022/03/04 03:41:30;;;;;;;22.65;12.15;;;1.60;82.30;;;;;;4912851;29;20513;-66
2022/03/04 03:43:56;;;;;;;18.55;11.20;;;1.60;82.30;;;;;;4913218;29;20048;-67
2022/03/04 03:46:22;;;;;;;21.08;11.63;;;1.60;82.30;;;;;;4913373;29;20469;-66
2022/03/04 03:48:48;;;;;;;23.88;11.18;;;1.60;82.30;;;;;;4915478;29;20051;-66
2022/03/04 03:51:13;;;;;;;17.30;11.30;;;1.60;82.20;;;;;;4931893;29;20503;-65
2022/03/04 03:53:39;;;;;;;19.52;11.15;;;1.60;82.20;;;;;;4931759;29;20060;-65
2022/03/04 03:56:05;;;;;;;17.85;11.30;;;1.60;82.30;;;;;;4931886;29;20106;-66
2022/03/04 03:58:30;;;;;;;20.40;11.50;;;1.50;82.10;;;;;;4927202;29;21132;-67
2022/03/04 04:00:56;;;;;;;22.73;12.40;;;1.60;82.20;;;;;;4920917;29;20070;-66
2022/03/04 04:03:22;;;;;;;18.55;11.68;;;1.50;82.10;;;;;;4912880;29;20138;-67
2022/03/04 04:05:47;;;;;;;20.85;12.00;;;1.50;82.10;;;;;;4929449;29;20048;-66
2022/03/04 04:08:13;;;;;;;19.60;11.73;;;1.50;82.10;;;;;;4931516;29;20182;-67
2022/03/04 04:10:39;;;;;;;21.65;12.30;;;1.50;82.10;;;;;;4914982;29;20054;-67
2022/03/04 04:13:04;;;;;;;19.40;11.27;;;1.50;82.10;;;;;;4931746;29;20044;-66
2022/03/04 04:15:30;;;;;;;18.58;11.73;;;1.50;82.00;;;;;;4931487;29;20151;-66
2022/03/04 04:17:55;;;;;;;22.02;11.95;;;1.50;81.90;;;;;;4914280;29;20083;-66
2022/03/04 04:20:21;;;;;;;22.48;12.70;;;1.50;82.00;;;;;;4913182;29;20066;-66
2022/03/04 04:22:46;;;;;;;21.08;10.77;;;1.50;82.00;;;;;;4912866;29;20067;-66
2022/03/04 04:25:12;;;;;;;21.25;11.48;;;1.40;82.00;;;;;;4912928;29;20048;-66
2022/03/04 04:27:38;;;;;;;20.48;12.20;;;1.50;82.00;;;;;;4912632;29;20043;-66
2022/03/04 04:30:05;;;;;;;18.13;10.52;;;1.50;81.90;;;;;;4924872;29;20051;-67
2022/03/04 04:32:30;;;;;;;20.67;11.23;;;1.50;81.90;;;;;;4931051;29;20127;-67
2022/03/04 04:34:56;;;;;;;21.67;12.27;;;1.40;81.70;;;;;;4931884;29;20158;-66
2022/03/04 04:37:21;;;;;;;15.95;10.65;;;1.40;81.80;;;;;;4918766;29;20079;-66
2022/03/04 04:39:47;;;;;;;20.73;11.55;;;1.40;81.70;;;;;;4931545;29;20040;-67
2022/03/04 04:42:13;;;;;;;21.50;11.40;;;1.40;81.60;;;;;;4924785;29;20047;-67
2022/03/04 04:44:38;;;;;;;17.98;11.13;;;1.30;81.60;;;;;;4912548;29;20047;-66
2022/03/04 04:47:06;;;;;;;22.83;11.70;;;1.30;81.60;;;;;;4912720;29;20040;-67
2022/03/04 04:49:35;;;;;;;20.95;11.57;;;1.30;81.60;;;;;;4912562;29;20576;-66
2022/03/04 04:52:01;;;;;;;17.90;11.40;;;1.30;81.70;;;;;;4895738;29;20044;-66
2022/03/04 04:54:27;;;;;;;21.10;10.82;;;1.30;81.70;;;;;;4912324;29;20059;-66
2022/03/04 04:56:52;;;;;;;21.35;10.88;;;1.20;81.80;;;;;;4912529;29;20135;-67
2022/03/04 04:59:18;;;;;;;18.73;10.85;;;1.20;81.80;;;;;;4912472;29;20055;-66
2022/03/04 05:01:43;;;;;;;20.52;11.50;;;1.20;82.00;;;;;;4910699;29;20413;-66
2022/03/04 05:04:09;;;;;;;22.40;12.75;;;1.30;82.00;;;;;;4912592;29;20048;-67
2022/03/04 05:06:34;;;;;;;20.58;12.07;;;1.30;82.00;;;;;;4912437;29;20477;-66
2022/03/04 05:09:00;;;;;;;21.90;11.40;;;1.20;81.90;;;;;;4924403;29;20044;-66
2022/03/04 05:11:26;;;;;;;21.25;12.90;;;1.20;81.90;;;;;;4915379;29;20036;-66
2022/03/04 05:13:51;;;;;;;22.50;12.20;;;1.20;81.90;;;;;;4914932;29;20513;-66
2022/03/04 05:16:17;;;;;;;19.60;11.82;;;1.20;81.90;;;;;;4932755;29;20083;-66
2022/03/04 05:18:43;;;;;;;21.02;11.38;;;1.20;82.00;;;;;;4931367;29;20475;-66
2022/03/04 05:21:09;;;;;;;23.35;12.68;;;1.20;81.90;;;;;;4917583;29;20056;-66
2022/03/04 05:26:19;;;;;;;21.38;12.32;;;1.10;81.90;;;;;;4934768;29;20088;-66
2022/03/04 05:28:44;;;;;;;23.50;12.38;;;1.10;81.90;;;;;;4918935;29;20103;-66
2022/03/04 05:31:10;;;;;;;19.42;11.50;;;1.00;81.90;;;;;;4915629;29;20518;-66
2022/03/04 05:33:35;;;;;;;20.02;12.43;;;1.00;81.90;;;;;;4933197;29;20500;-66
2022/03/04 05:36:01;;;;;;;24.55;11.25;;;1.00;82.00;;;;;;4927361;29;20044;-66
2022/03/04 05:38:27;;;;;;;20.02;11.82;;;1.00;82.00;;;;;;4934639;29;20043;-67
2022/03/04 05:40:53;;;;;;;18.08;11.18;;;1.00;82.00;;;;;;4930346;29;20047;-67
2022/03/04 05:43:18;;;;;;;21.08;11.02;;;1.00;82.10;;;;;;4929485;29;20036;-67
2022/03/04 05:45:44;;;;;;;19.50;11.38;;;1.00;82.00;;;;;;4926677;29;20540;-66
2022/03/04 05:48:09;;;;;;;19.42;11.30;;;1.00;82.00;;;;;;4931004;29;20056;-66
2022/03/04 05:50:35;;;;;;;19.17;11.68;;;0.90;82.00;;;;;;4934090;29;20452;-66
2022/03/04 05:53:01;;;;;;;21.95;12.40;;;0.90;81.90;;;;;;4926359;29;20092;-66
2022/03/04 05:55:26;;;;;;;18.27;11.30;;;0.90;81.70;;;;;;4932539;29;20523;-66
2022/03/04 05:57:52;;;;;;;21.40;12.05;;;0.90;81.70;;;;;;4925003;29;20423;-66
2022/03/04 06:00:17;;;;;;;19.85;11.23;;;0.80;81.60;;;;;;4928697;29;20047;-66
2022/03/04 06:02:43;;;;;;;20.90;13.00;;;0.80;81.60;;;;;;4926695;29;20629;-66
2022/03/04 06:05:09;;;;;;;17.90;10.82;;;0.80;81.60;;;;;;4926028;29;20047;-67
2022/03/04 06:07:35;;;;;;;26.08;12.68;;;0.90;81.50;;;;;;4925761;29;20052;-67
2022/03/04 06:10:02;;;;;;;23.23;11.10;;;0.80;81.50;;;;;;4928855;29;20409;-66
2022/03/04 06:12:28;;;;;;;21.75;11.35;;;0.80;81.50;;;;;;4927945;29;20398;-66
2022/03/04 06:14:54;;;;;;;20.40;11.38;;;0.80;81.50;;;;;;4893449;29;20051;-66
2022/03/04 06:17:19;;;;;;;22.80;12.35;;;0.80;81.40;;;;;;4926271;29;20036;-67
2022/03/04 06:19:45;;;;;;;20.58;11.95;;;0.70;81.40;;;;;;4929661;29;20039;-65
2022/03/04 06:22:10;;;;;;;22.92;12.63;;;0.70;81.50;;;;;;4913006;29;20600;-67
2022/03/04 06:24:37;;;;;;;20.92;12.07;;;0.70;81.60;;;;;;4928826;29;20054;-67
2022/03/04 06:27:03;;;;;;;25.17;12.95;;;0.70;81.60;;;;;;4926357;29;20048;-66
2022/03/04 06:29:29;;;;;;;20.52;12.55;;;0.70;81.70;;;;;;4927432;29;20514;-68
2022/03/04 06:31:54;;;;;;;23.75;13.38;;;0.60;81.70;;;;;;4927566;29;20044;-66
2022/03/04 06:34:20;;;;;;;20.23;11.32;;;0.60;81.70;;;;;;4928732;29;20039;-66
2022/03/04 06:36:45;;;;;;;22.10;13.20;;;0.60;81.80;;;;;;4928776;29;20044;-66
2022/03/04 06:39:12;;;;;;;19.98;12.07;;;0.60;81.70;;;;;;4928541;29;20032;-67
2022/03/04 06:41:37;;;;;;;23.15;13.55;;;0.50;81.70;;;;;;4932196;29;20182;-67
2022/03/04 06:44:04;;;;;;;24.63;13.60;;;0.60;81.70;;;;;;4930333;29;20126;-67
2022/03/04 06:46:29;;;;;;;23.58;13.02;;;0.60;81.70;;;;;;4932512;29;20058;-67
2022/03/04 06:48:55;;;;;;;24.10;13.52;;;0.50;81.70;;;;;;4932795;29;20378;-66
2022/03/04 06:51:21;;;;;;;27.40;13.63;;;0.50;81.70;;;;;;4932029;29;20036;-67
2022/03/04 06:53:46;;;;;;;22.48;13.15;;;0.50;81.50;;;;;;4915381;29;20421;-65
2022/03/04 06:56:15;;;;;;;23.33;14.55;;;0.50;81.60;;;;;;4930875;29;20046;-67
2022/03/04 06:58:41;;;;;;;22.73;14.60;;;0.40;82.00;;;;;;4929351;29;20052;-66
2022/03/04 07:01:07;;;;;;;22.27;13.40;;;0.50;82.00;;;;;;4933795;29;20054;-65
2022/03/04 07:03:33;;;;;;;26.92;15.50;;;0.50;82.10;;;;;;4942896;29;20035;-66
2022/03/04 07:05:58;;;;;;;27.27;14.65;;;0.40;82.40;;;;;;4952729;29;20039;-66
2022/03/04 07:08:24;;;;;;;25.65;14.63;;;0.50;82.40;;;;;;4952450;29;20054;-66
2022/03/04 07:10:50;;;;;;;26.08;15.80;;;0.50;82.40;;;;;;4935621;29;20047;-67
2022/03/04 07:13:16;;;;;;;25.60;16.52;;;0.50;82.40;;;;;;4952146;29;20039;-67
2022/03/04 07:15:42;;;;;;;24.98;15.02;;;0.60;82.50;;;;;;4943229;29;20050;-67
2022/03/04 07:18:08;;;;;;;27.15;15.18;;;0.60;82.50;;;;;;4933488;29;20052;-68
2022/03/04 07:20:34;;;;;;;30.70;15.75;;;0.60;82.60;;;;;;4933481;29;20564;-67
2022/03/04 07:23:00;;;;;;;25.45;14.48;;;0.70;83.30;;;;;;4933025;29;20044;-67
2022/03/04 07:25:26;;;;;;;28.25;16.08;;;0.70;83.20;;;;;;4932872;29;20043;-67
2022/03/04 07:27:52;;;;;;;26.83;16.30;;;0.80;83.80;;;;;;4932279;29;20110;-65
2022/03/04 07:30:18;;;;;;;31.85;16.17;;;0.80;83.50;;;;;;4933060;29;20564;-64
2022/03/04 07:32:44;;;;;;;22.77;14.82;;;0.80;83.20;;;;;;4932430;29;20423;-65
2022/03/04 07:35:11;;;;;;;27.08;16.58;;;0.90;83.20;;;;;;4933247;29;20452;-65
2022/03/04 07:37:42;;;;;;;27.58;16.98;;;0.90;83.10;;;;;;4915906;29;20077;-65
2022/03/04 07:40:10;;;;;;;29.70;17.83;;;1.00;83.10;;;;;;4932691;29;20051;-65
2022/03/04 07:42:35;;;;;;;29.70;18.50;;;1.00;83.30;;;;;;4928164;29;20043;-63
2022/03/04 07:45:02;;;;;;;31.98;17.50;;;1.10;83.50;;;;;;4932304;29;20131;-65
2022/03/04 07:47:28;;;;;;;28.98;17.52;;;1.20;83.50;;;;;;4930394;29;20123;-64
2022/03/04 07:49:54;;;;;;;31.00;17.92;;;1.20;83.30;;;;;;4927583;29;20052;-65
2022/03/04 07:52:20;;;;;;;28.92;17.63;;;1.20;83.40;;;;;;4921798;29;20520;-65
2022/03/04 07:54:45;;;;;;;32.60;18.50;;;1.30;83.50;;;;;;4927332;29;20482;-65
2022/03/04 07:57:11;;;;;;;27.20;16.55;;;1.30;83.30;;;;;;4913653;29;20095;-65
2022/03/04 07:59:37;;;;;;;28.55;16.83;;;1.30;83.10;;;;;;4931419;29;20047;-65
2022/03/04 08:02:02;;;;;;;30.85;17.48;;;1.30;83.10;;;;;;4915776;29;20165;-65
2022/03/04 08:04:28;;;;;;;33.38;18.15;;;1.40;83.10;;;;;;4923596;29;20044;-65
2022/03/04 08:06:54;;;;;;;29.85;18.00;;;1.40;83.10;;;;;;4919332;29;20469;-65
2022/03/04 08:09:21;;;;;;;29.42;17.38;;;1.40;83.10;;;;;;4922225;29;20162;-67
2022/03/04 08:11:47;;;;;;;27.67;18.55;;;1.40;83.00;;;;;;4914513;29;20139;-65
2022/03/04 08:14:13;;;;;;;30.88;18.23;;;1.40;83.10;;;;;;4926909;29;20039;-64
2022/03/04 08:16:38;;;;;;;33.20;19.38;;;1.50;83.20;;;;;;4913334;29;20044;-65
2022/03/04 08:19:05;;;;;;;27.92;16.77;;;1.50;83.20;;;;;;4928211;29;20128;-66
2022/03/04 08:21:31;;;;;;;26.83;17.15;;;1.50;83.10;;;;;;4932365;29;20078;-66
2022/03/04 08:23:56;;;;;;;25.17;16.35;;;1.50;83.10;;;;;;4914026;29;20528;-64
2022/03/04 08:26:22;;;;;;;28.25;17.60;;;1.50;83.10;;;;;;4925011;29;20055;-66
2022/03/04 08:28:47;;;;;;;30.27;17.58;;;1.40;83.20;;;;;;4923111;29;20792;-66
2022/03/04 08:31:14;;;;;;;28.35;16.63;;;1.50;83.10;;;;;;4931157;29;20054;-65
2022/03/04 08:33:44;;;;;;;31.58;18.40;;;1.50;83.20;;;;;;4928145;29;20036;-66
2022/03/04 08:36:11;;;;;;;31.63;17.00;;;1.60;83.20;;;;;;4910554;29;20052;-66
2022/03/04 08:38:37;;;;;;;29.20;17.00;;;1.60;83.20;;;;;;4915053;29;20062;-65
2022/03/04 08:41:03;;;;;;;25.63;17.05;;;1.60;83.20;;;;;;4923636;29;20042;-65
2022/03/04 08:43:31;;;;;;;28.95;18.38;;;1.60;83.20;;;;;;4920480;29;20036;-65
2022/03/04 08:45:57;;;;;;;28.77;18.00;;;1.60;83.30;;;;;;4922959;29;20048;-65
2022/03/04 08:48:23;;;;;;;27.10;18.15;;;1.60;83.30;;;;;;4920508;29;20128;-66
2022/03/04 08:50:49;;;;;;;29.77;17.92;;;1.60;83.30;;;;;;4909195;29;20150;-66
2022/03/04 08:53:15;;;;;;;30.10;18.95;;;1.60;83.20;;;;;;4929468;29;20134;-66
2022/03/04 08:55:44;;;;;;;32.15;19.67;;;1.60;83.30;;;;;;4917695;29;20058;-67
2022/03/04 08:58:10;;;;;;;31.70;20.02;;;1.70;83.30;;;;;;4928673;29;20063;-66
2022/03/04 09:00:37;;;;;;;18.48;12.00;;;1.70;83.30;;;;;;4934539;29;20412;-66
2022/03/04 09:03:04;;;;;;;37.42;20.83;;;2.70;93.00;;;;;;4908899;29;20044;-69
2022/03/04 09:05:30;;;;;;;33.45;21.45;;;4.90;86.90;;;;;;4906335;29;20446;-66
2022/03/04 09:07:56;;;;;;;30.33;19.73;;;5.70;85.80;;;;;;4928438;29;20063;-66
2022/03/04 09:10:22;;;;;;;30.92;18.15;;;5.50;83.10;;;;;;4929563;29;20127;-66
2022/03/04 09:12:48;;;;;;;29.85;17.33;;;5.10;81.40;;;;;;4934871;29;20138;-65
2022/03/04 09:15:13;;;;;;;24.08;16.42;;;4.50;79.60;;;;;;4927937;29;20103;-66
2022/03/04 09:17:40;;;;;;;25.08;17.20;;;4.20;79.80;;;;;;4919805;29;20087;-66
2022/03/04 09:20:07;;;;;;;25.30;16.48;;;3.90;79.60;;;;;;4917709;29;20441;-66
2022/03/04 09:22:33;;;;;;;27.63;18.90;;;3.60;79.90;;;;;;4929513;29;20044;-66
2022/03/04 09:24:58;;;;;;;28.00;18.40;;;3.50;80.10;;;;;;4935002;29;20059;-66
2022/03/04 09:27:24;;;;;;;27.45;18.35;;;3.20;79.90;;;;;;4934643;29;20130;-66
2022/03/04 09:29:50;;;;;;;30.63;20.65;;;3.00;80.20;;;;;;4934606;29;20588;-66
2022/03/04 09:32:16;;;;;;;29.73;18.70;;;2.90;80.50;;;;;;4934826;29;20496;-67
2022/03/04 09:34:42;;;;;;;31.48;19.83;;;2.90;80.80;;;;;;4931376;29;20048;-66
2022/03/04 09:37:08;;;;;;;33.30;19.48;;;3.60;84.00;;;;;;4930040;29;20512;-67
2022/03/04 09:39:33;;;;;;;35.08;19.40;;;3.60;82.80;;;;;;4916775;29;20071;-67
2022/03/04 09:41:59;;;;;;;27.42;19.17;;;3.40;81.60;;;;;;4911539;29;20099;-67
2022/03/04 09:44:25;;;;;;;27.15;19.20;;;3.30;81.10;;;;;;4922435;29;20047;-67
2022/03/04 09:46:53;;;;;;;31.85;20.40;;;3.30;80.90;;;;;;4921171;29;20493;-67
2022/03/04 09:49:18;;;;;;;28.20;18.10;;;3.20;80.80;;;;;;4884694;29;20059;-66
2022/03/04 09:51:45;;;;;;;28.80;20.20;;;3.10;80.80;;;;;;4927382;29;20043;-66
2022/03/04 09:54:11;;;;;;;34.38;21.02;;;3.10;80.70;;;;;;4910692;29;20565;-66
2022/03/04 09:56:38;;;;;;;28.48;20.15;;;3.10;80.80;;;;;;4915868;29;20118;-67
2022/03/04 09:59:04;;;;;;;36.22;22.08;;;3.10;81.00;;;;;;4925666;29;20043;-67
2022/03/04 10:01:30;;;;;;;30.70;21.33;;;3.10;80.90;;;;;;4924005;29;20035;-66
2022/03/04 10:03:55;;;;;;;30.33;21.60;;;3.10;81.10;;;;;;4929468;29;20488;-67
2022/03/04 10:06:22;;;;;;;32.13;21.02;;;3.20;81.20;;;;;;4933642;29;20055;-67
2022/03/04 10:08:52;;;;;;;29.13;20.48;;;3.30;81.20;;;;;;4926625;29;20043;-66
2022/03/04 10:11:33;;;;;;;30.45;19.85;;;3.30;81.20;;;;;;4933474;29;20046;-67
2022/03/04 10:14:00;;;;;;;32.75;21.30;;;3.40;81.20;;;;;;4930140;29;20138;-67
2022/03/04 10:16:30;;;;;;;30.45;20.77;;;3.30;81.00;;;;;;4923684;29;20048;-67
2022/03/04 10:19:13;;;;;;;28.35;19.92;;;3.20;81.00;;;;;;4911848;29;20043;-67
2022/03/04 10:22:00;;;;;;;32.78;21.92;;;3.30;81.30;;;;;;4933279;29;20051;-66
2022/03/04 10:24:35;;;;;;;32.92;20.33;;;3.40;81.30;;;;;;4930640;29;20705;-67
2022/03/04 10:27:05;;;;;;;32.83;21.20;;;3.50;81.50;;;;;;4933881;29;20050;-67
2022/03/04 10:29:35;;;;;;;33.25;21.08;;;3.70;81.50;;;;;;4930669;29;21306;-67
2022/03/04 10:32:20;;;;;;;36.58;22.63;;;3.90;81.40;;;;;;4914925;29;20383;-67
2022/03/04 10:34:49;;;;;;;30.80;20.42;;;4.00;81.10;;;;;;4907440;29;20055;-68
2022/03/04 10:37:18;;;;;;;32.60;21.85;;;4.10;80.80;;;;;;4933658;29;20075;-67
2022/03/04 10:39:57;;;;;;;32.45;22.20;;;4.10;80.70;;;;;;4930735;29;20051;-67
2022/03/04 10:42:44;;;;;;;28.75;19.95;;;4.20;80.60;;;;;;4914838;29;20059;-67
2022/03/04 10:45:13;;;;;;;27.92;20.35;;;4.20;80.40;;;;;;4917933;29;20052;-67
2022/03/04 10:47:50;;;;;;;32.72;20.00;;;4.20;80.40;;;;;;4926465;29;20055;-66
2022/03/04 10:50:32;;;;;;;35.55;20.48;;;4.30;80.30;;;;;;4920478;29;20048;-67
2022/03/04 10:53:04;;;;;;;33.33;20.15;;;4.20;80.20;;;;;;4923078;29;20056;-65
2022/03/04 10:55:42;;;;;;;27.92;19.63;;;4.30;80.30;;;;;;4922138;29;20059;-66
2022/03/04 10:58:31;;;;;;;28.02;19.63;;;4.40;80.10;;;;;;4915488;29;20051;-66
2022/03/04 11:01:08;;;;;;;29.10;18.00;;;4.50;80.10;;;;;;4920529;29;20051;-65
2022/03/04 11:03:34;;;;;;;28.75;19.75;;;4.50;79.90;;;;;;4924806;29;20512;-66
2022/03/04 11:06:11;;;;;;;26.85;17.85;;;4.50;79.80;;;;;;4925250;29;20515;-66
2022/03/04 11:08:37;;;;;;;25.98;17.33;;;4.60;79.90;;;;;;4922421;29;20074;-65
2022/03/04 11:11:04;;;;;;;27.38;17.38;;;4.50;79.80;;;;;;4918075;29;20078;-66
2022/03/04 11:13:33;;;;;;;25.92;18.42;;;4.60;79.80;;;;;;4921628;29;20035;-66
2022/03/04 11:16:00;;;;;;;27.23;17.98;;;4.60;79.70;;;;;;4918679;29;20122;-66
2022/03/04 11:18:26;;;;;;;26.38;18.58;;;4.70;79.60;;;;;;4921354;29;20072;-66
2022/03/04 11:20:55;;;;;;;21.63;16.67;;;4.80;79.40;;;;;;4924747;29;20054;-65
2022/03/04 11:23:32;;;;;;;26.30;17.80;;;4.80;79.40;;;;;;4903662;29;20375;-64
2022/03/04 11:26:01;;;;;;;24.50;16.83;;;4.90;79.40;;;;;;4916794;29;20088;-65
2022/03/04 11:28:39;;;;;;;24.38;16.20;;;5.00;79.00;;;;;;4920997;29;20052;-65
2022/03/04 11:31:07;;;;;;;28.27;17.08;;;5.00;79.00;;;;;;4923152;29;20044;-65
2022/03/04 11:33:38;;;;;;;21.38;15.25;;;5.10;78.80;;;;;;4905144;29;20510;-66
2022/03/04 11:36:34;;;;;;;23.88;15.77;;;5.20;78.70;;;;;;4931058;29;20036;-66
2022/03/04 11:39:00;;;;;;;24.77;14.60;;;5.30;78.30;;;;;;4932069;29;20070;-66
2022/03/04 11:41:35;;;;;;;22.05;15.05;;;5.30;78.20;;;;;;4930795;29;20507;-66
2022/03/04 11:44:08;;;;;;;25.50;17.15;;;5.40;78.00;;;;;;4919603;29;20043;-66
2022/03/04 11:46:47;;;;;;;22.80;16.02;;;5.50;77.70;;;;;;4917766;29;20129;-66
2022/03/04 11:49:29;;;;;;;19.23;14.93;;;5.60;77.50;;;;;;4927605;29;20055;-66
2022/03/04 11:52:10;;;;;;;23.92;16.50;;;5.70;77.60;;;;;;4931262;29;20136;-66
2022/03/04 11:54:38;;;;;;;21.95;15.32;;;5.80;77.40;;;;;;4931496;29;20063;-66
2022/03/04 11:57:34;;;;;;;19.48;14.70;;;5.80;77.00;;;;;;4917042;29;20051;-66
2022/03/04 12:00:20;;;;;;;21.52;15.38;;;5.90;76.70;;;;;;4927953;29;20166;-65
2022/03/04 12:02:51;;;;;;;20.25;14.20;;;5.80;76.50;;;;;;4913842;29;20139;-66
2022/03/04 12:05:25;;;;;;;18.67;13.03;;;5.90;76.30;;;;;;4912991;29;20123;-64
2022/03/04 12:07:56;;;;;;;21.90;15.05;;;6.00;75.90;;;;;;4931135;29;20311;-65
2022/03/04 12:10:27;;;;;;;19.70;14.38;;;6.00;75.60;;;;;;4927014;29;20053;-65
2022/03/04 12:12:59;;;;;;;22.55;14.93;;;6.10;75.40;;;;;;4928549;29;20043;-65
2022/03/04 12:15:26;;;;;;;22.88;13.93;;;6.10;75.10;;;;;;4930771;29;20592;-65
2022/03/04 12:17:52;;;;;;;23.50;14.43;;;6.20;75.20;;;;;;4931257;29;20735;-67
2022/03/04 12:20:47;;;;;;;19.45;13.80;;;6.30;75.20;;;;;;4913908;29;20056;-66
2022/03/04 12:23:18;;;;;;;18.05;13.30;;;6.50;74.70;;;;;;4912176;29;20064;-66
2022/03/04 12:25:56;;;;;;;24.83;13.13;;;6.50;74.90;;;;;;4927405;29;20043;-66
2022/03/04 12:28:27;;;;;;;22.02;13.20;;;6.60;74.70;;;;;;4925940;29;20048;-65
2022/03/04 12:31:02;;;;;;;20.47;14.63;;;6.60;74.30;;;;;;4928468;29;20046;-66
2022/03/04 12:33:36;;;;;;;19.00;13.35;;;6.70;74.10;;;;;;4925007;29;20059;-65
2022/03/04 12:36:05;;;;;;;18.25;13.27;;;6.80;73.90;;;;;;4932295;29;20046;-66
2022/03/04 12:38:46;;;;;;;17.48;11.80;;;6.80;73.50;;;;;;4918153;29;20047;-64
2022/03/04 12:41:18;;;;;;;19.38;12.30;;;6.90;73.00;;;;;;4924307;29;20052;-65
2022/03/04 12:43:46;;;;;;;16.75;11.10;;;6.90;72.50;;;;;;4915578;29;20043;-67